Time;durP1;ratioP1;P1;durP2;ratioP2;P2;SDS_P1;SDS_P2;PMS_P1;PMS_P2;Temp;Humidity;BMP_temperature;BMP_pressure;BME280_temperature;BME280_humidity;BME280_pressure;Samples;Min_cycle;Max_cycle;Signal;HPM_P1;HPM_P2
2022/01/07 00:01:33;;;;;;;5.43;1.90;;;;;;;;;;5094304;28;20056;-85
2022/01/07 00:03:59;;;;;;;4.60;1.70;;;;;;;;;;5094292;28;20020;-67
2022/01/07 00:06:25;;;;;;;5.07;1.65;;;;;;;;;;5092593;28;20058;-63
2022/01/07 00:08:51;;;;;;;4.95;1.98;;;;;;;;;;5094322;28;20024;-83
2022/01/07 00:11:17;;;;;;;6.05;1.65;;;;;;;;;;5094304;28;20039;-75
2022/01/07 00:13:43;;;;;;;5.43;1.90;;;;;;;;;;5094052;28;20404;-73
2022/01/07 00:16:11;;;;;;;5.07;1.45;;;;;;;;;;5097216;28;20711;-90
2022/01/07 00:18:37;;;;;;;5.85;1.90;;;;;;;;;;5097045;28;20023;-90
2022/01/07 00:21:04;;;;;;;5.65;2.20;;;;;;;;;;5093214;28;20016;-69
2022/01/07 00:23:30;;;;;;;4.00;1.67;;;;;;;;;;5091608;28;20469;-63
2022/01/07 00:25:56;;;;;;;6.15;2.00;;;;;;;;;;5093831;28;20024;-70
2022/01/07 00:28:22;;;;;;;4.47;1.75;;;;;;;;;;5092182;28;20021;-77
2022/01/07 00:30:48;;;;;;;5.70;1.63;;;;;;;;;;5092520;28;20052;-63
2022/01/07 00:33:14;;;;;;;5.75;2.05;;;;;;;;;;5092210;28;20028;-63
2022/01/07 00:35:41;;;;;;;5.80;2.15;;;;;;;;;;5092829;28;20016;-64
2022/01/07 00:38:07;;;;;;;4.63;1.80;;;;;;;;;;5091690;28;20073;-70
2022/01/07 00:40:33;;;;;;;5.40;1.77;;;;;;;;;;5093229;28;20031;-73
2022/01/07 00:42:59;;;;;;;8.32;1.80;;;;;;;;;;5092927;28;20016;-63
2022/01/07 00:45:25;;;;;;;5.00;1.67;;;;;;;;;;5093399;28;20081;-72
2022/01/07 00:47:53;;;;;;;5.03;1.90;;;;;;;;;;5092917;28;20045;-78
2022/01/07 00:50:20;;;;;;;5.55;1.88;;;;;;;;;;5094019;28;20032;-84
2022/01/07 00:52:46;;;;;;;5.93;2.00;;;;;;;;;;5092980;28;20421;-80
2022/01/07 00:55:13;;;;;;;4.75;1.80;;;;;;;;;;5078393;28;20082;-92
2022/01/07 00:57:39;;;;;;;3.40;1.40;;;;;;;;;;5072630;28;20027;-89
2022/01/07 01:00:07;;;;;;;4.03;1.67;;;;;;;;;;5071571;28;20070;-84
2022/01/07 01:02:33;;;;;;;5.65;1.70;;;;;;;;;;5072064;28;20029;-71
2022/01/07 01:04:59;;;;;;;3.88;1.65;;;;;;;;;;5073101;28;20477;-87
2022/01/07 01:07:26;;;;;;;4.90;1.70;;;;;;;;;;5072310;28;20054;-91
2022/01/07 01:09:52;;;;;;;5.78;1.90;;;;;;;;;;5072570;28;20024;-78
2022/01/07 01:12:18;;;;;;;5.20;1.75;;;;;;;;;;5071190;28;20555;-94
2022/01/07 01:14:44;;;;;;;5.30;2.08;;;;;;;;;;5072387;28;20040;-77
2022/01/07 01:17:10;;;;;;;5.57;2.10;;;;;;;;;;5072487;28;20024;-76
2022/01/07 01:19:37;;;;;;;6.05;2.20;;;;;;;;;;5071444;28;20025;-63
2022/01/07 01:22:03;;;;;;;5.22;1.88;;;;;;;;;;5072892;28;20021;-83
2022/01/07 01:24:29;;;;;;;5.32;1.90;;;;;;;;;;5072244;28;20040;-80
2022/01/07 01:26:56;;;;;;;6.70;2.08;;;;;;;;;;5072135;28;20020;-77
2022/01/07 01:29:22;;;;;;;6.55;2.17;;;;;;;;;;5072531;28;20029;-65
2022/01/07 01:31:49;;;;;;;5.43;1.80;;;;;;;;;;5072538;28;20024;-80
2022/01/07 01:34:15;;;;;;;5.47;2.17;;;;;;;;;;5071196;28;20047;-68
2022/01/07 01:36:42;;;;;;;4.03;1.80;;;;;;;;;;5071841;28;20021;-73
2022/01/07 01:39:10;;;;;;;5.20;2.20;;;;;;;;;;5074584;28;20028;-68
2022/01/07 01:41:36;;;;;;;4.47;1.90;;;;;;;;;;5092628;28;20510;-69
2022/01/07 01:44:02;;;;;;;5.90;2.10;;;;;;;;;;5092003;28;20024;-76
2022/01/07 01:46:28;;;;;;;5.75;1.95;;;;;;;;;;5092379;28;20078;-68
2022/01/07 01:48:54;;;;;;;7.60;2.38;;;;;;;;;;5092502;28;20023;-81
2022/01/07 01:51:20;;;;;;;8.82;2.10;;;;;;;;;;5092216;28;20028;-78
2022/01/07 01:53:46;;;;;;;10.90;2.10;;;;;;;;;;5092355;28;20036;-68
2022/01/07 01:56:12;;;;;;;12.95;2.67;;;;;;;;;;5091982;28;20594;-77
2022/01/07 01:58:38;;;;;;;11.88;2.30;;;;;;;;;;5091469;28;20073;-70
2022/01/07 02:01:04;;;;;;;8.25;2.00;;;;;;;;;;5091512;28;20115;-63
2022/01/07 02:03:30;;;;;;;5.22;1.70;;;;;;;;;;5091507;28;20032;-67
2022/01/07 02:05:57;;;;;;;5.93;1.58;;;;;;;;;;5091624;28;20013;-79
2022/01/07 02:08:23;;;;;;;4.78;1.90;;;;;;;;;;5082881;28;20023;-69
2022/01/07 02:10:49;;;;;;;5.40;2.00;;;;;;;;;;5071277;28;20021;-75
2022/01/07 02:13:18;;;;;;;5.50;2.00;;;;;;;;;;5071218;28;20025;-77
2022/01/07 02:15:46;;;;;;;6.75;2.28;;;;;;;;;;5090316;28;20036;-71
2022/01/07 02:18:12;;;;;;;5.70;2.40;;;;;;;;;;5084133;28;20025;-68
2022/01/07 02:20:38;;;;;;;5.53;1.90;;;;;;;;;;5075010;28;20591;-70
2022/01/07 02:23:04;;;;;;;5.07;2.10;;;;;;;;;;5074566;28;20033;-66
2022/01/07 02:25:30;;;;;;;4.78;1.65;;;;;;;;;;5073645;28;20033;-63
2022/01/07 02:27:57;;;;;;;5.03;1.80;;;;;;;;;;5074855;28;20500;-67
2022/01/07 02:30:25;;;;;;;8.77;2.60;;;;;;;;;;5074904;28;20066;-73
2022/01/07 02:32:51;;;;;;;6.60;2.08;;;;;;;;;;5076290;28;21540;-77
2022/01/07 02:35:18;;;;;;;7.28;2.10;;;;;;;;;;5088275;28;20449;-75
2022/01/07 02:37:44;;;;;;;4.53;1.90;;;;;;;;;;5094904;28;20016;-76
2022/01/07 02:40:11;;;;;;;4.93;1.85;;;;;;;;;;5095066;28;20024;-77
2022/01/07 02:42:37;;;;;;;7.45;2.13;;;;;;;;;;5095665;28;20035;-73
2022/01/07 02:45:08;;;;;;;5.13;2.25;;;;;;;;;;5095868;28;20107;-67
2022/01/07 02:47:44;;;;;;;6.45;2.20;;;;;;;;;;5095841;28;20012;-79
2022/01/07 02:50:11;;;;;;;4.38;1.95;;;;;;;;;;5095854;28;20047;-71
2022/01/07 02:52:37;;;;;;;4.85;2.00;;;;;;;;;;5105648;28;20482;-69
2022/01/07 02:55:03;;;;;;;8.07;2.42;;;;;;;;;;5099622;28;20039;-84
2022/01/07 02:57:29;;;;;;;5.68;2.03;;;;;;;;;;5094118;28;20021;-77
2022/01/07 02:59:55;;;;;;;5.15;1.92;;;;;;;;;;5094022;28;20027;-83
2022/01/07 03:02:21;;;;;;;4.88;2.20;;;;;;;;;;5094788;28;20518;-73
2022/01/07 03:04:47;;;;;;;6.40;2.00;;;;;;;;;;5094469;28;20096;-76
2022/01/07 03:07:13;;;;;;;5.68;2.17;;;;;;;;;;5094433;28;20046;-72
2022/01/07 03:09:39;;;;;;;5.63;2.17;;;;;;;;;;5087239;28;20028;-82
2022/01/07 03:12:06;;;;;;;6.35;2.35;;;;;;;;;;5094718;28;20028;-76
2022/01/07 03:14:32;;;;;;;5.13;1.90;;;;;;;;;;5093264;28;20042;-70
2022/01/07 03:16:58;;;;;;;7.22;2.40;;;;;;;;;;5094492;28;20017;-76
2022/01/07 03:19:24;;;;;;;5.43;2.28;;;;;;;;;;5094246;28;20103;-78
2022/01/07 03:21:50;;;;;;;7.00;2.63;;;;;;;;;;5094314;28;20484;-68
2022/01/07 03:24:16;;;;;;;6.97;2.33;;;;;;;;;;5093767;28;20460;-75
2022/01/07 03:26:42;;;;;;;5.65;2.15;;;;;;;;;;5087459;28;20166;-78
2022/01/07 03:29:08;;;;;;;6.53;2.28;;;;;;;;;;5094294;28;20024;-73
2022/01/07 03:31:34;;;;;;;5.03;1.98;;;;;;;;;;5092940;28;20385;-79
2022/01/07 03:34:00;;;;;;;4.63;1.90;;;;;;;;;;5094246;28;20047;-71
2022/01/07 03:36:26;;;;;;;6.90;2.45;;;;;;;;;;5092716;28;20027;-75
2022/01/07 03:38:52;;;;;;;7.45;2.03;;;;;;;;;;5094062;28;20028;-71
2022/01/07 03:41:19;;;;;;;6.93;2.30;;;;;;;;;;5094100;28;20069;-73
2022/01/07 03:43:45;;;;;;;7.25;2.70;;;;;;;;;;5094159;28;20028;-67
2022/01/07 03:46:11;;;;;;;6.28;2.28;;;;;;;;;;5094050;28;20024;-71
2022/01/07 03:48:37;;;;;;;5.15;2.10;;;;;;;;;;5092790;28;20687;-81
2022/01/07 03:51:03;;;;;;;4.00;1.75;;;;;;;;;;5094229;28;20031;-78
2022/01/07 03:53:29;;;;;;;4.55;1.80;;;;;;;;;;5095822;28;20054;-83
2022/01/07 03:55:55;;;;;;;5.25;1.80;;;;;;;;;;5102499;28;20501;-63
2022/01/07 03:58:21;;;;;;;7.25;1.70;;;;;;;;;;5098208;28;20424;-76
2022/01/07 04:00:47;;;;;;;5.43;2.05;;;;;;;;;;5094269;28;20111;-65
2022/01/07 04:03:15;;;;;;;6.22;2.15;;;;;;;;;;5092467;28;20541;-64
2022/01/07 04:05:41;;;;;;;3.92;1.80;;;;;;;;;;5092575;28;20054;-69
2022/01/07 04:08:08;;;;;;;7.55;2.10;;;;;;;;;;5093561;28;20426;-70
2022/01/07 04:10:34;;;;;;;6.93;2.30;;;;;;;;;;5082878;28;20036;-69
2022/01/07 04:13:00;;;;;;;4.97;1.90;;;;;;;;;;5073238;28;20028;-69
2022/01/07 04:15:27;;;;;;;4.60;1.80;;;;;;;;;;5073516;28;20115;-65
2022/01/07 04:17:54;;;;;;;4.93;2.13;;;;;;;;;;5074170;28;20100;-85
2022/01/07 04:20:24;;;;;;;4.97;1.80;;;;;;;;;;5073181;28;20020;-72
2022/01/07 04:22:51;;;;;;;4.00;1.70;;;;;;;;;;5074175;28;20545;-72
2022/01/07 04:25:18;;;;;;;5.30;1.98;;;;;;;;;;5074145;28;20048;-82
2022/01/07 04:27:54;;;;;;;7.55;1.75;;;;;;;;;;5074069;28;20032;-68
2022/01/07 04:30:21;;;;;;;5.68;2.03;;;;;;;;;;5073814;28;20684;-77
2022/01/07 04:32:48;;;;;;;5.38;2.05;;;;;;;;;;5073242;28;20556;-70
2022/01/07 04:35:15;;;;;;;4.93;1.85;;;;;;;;;;5072103;28;20499;-64
2022/01/07 04:37:41;;;;;;;4.10;1.83;;;;;;;;;;5071293;28;20037;-71
2022/01/07 04:40:08;;;;;;;4.72;2.03;;;;;;;;;;5086974;28;20070;-73
2022/01/07 04:42:34;;;;;;;5.32;2.30;;;;;;;;;;5093350;28;20020;-78
2022/01/07 04:45:00;;;;;;;6.30;1.90;;;;;;;;;;5093335;28;20021;-68
2022/01/07 04:47:26;;;;;;;4.63;1.88;;;;;;;;;;5093659;28;20030;-76
2022/01/07 04:49:52;;;;;;;4.70;2.00;;;;;;;;;;5093201;28;20027;-75
2022/01/07 04:52:21;;;;;;;4.75;1.77;;;;;;;;;;5092886;28;20089;-75
2022/01/07 04:54:47;;;;;;;4.32;2.00;;;;;;;;;;5092380;28;20384;-70
2022/01/07 04:57:13;;;;;;;7.05;2.40;;;;;;;;;;5092459;28;20157;-70
2022/01/07 04:59:39;;;;;;;4.93;2.00;;;;;;;;;;5093329;28;20024;-78
2022/01/07 05:02:05;;;;;;;3.97;1.77;;;;;;;;;;5093319;28;20624;-84
2022/01/07 05:04:31;;;;;;;6.70;2.42;;;;;;;;;;5093208;28;20032;-77
2022/01/07 05:06:57;;;;;;;6.93;2.00;;;;;;;;;;5093140;28;20020;-80
2022/01/07 05:09:23;;;;;;;4.88;2.13;;;;;;;;;;5092631;28;20016;-79
2022/01/07 05:11:53;;;;;;;5.10;2.22;;;;;;;;;;5091040;28;20549;-72
2022/01/07 05:14:20;;;;;;;5.88;2.47;;;;;;;;;;5092473;28;20040;-68
2022/01/07 05:16:46;;;;;;;5.95;1.98;;;;;;;;;;5092855;28;20502;-77
2022/01/07 05:19:12;;;;;;;5.03;1.80;;;;;;;;;;5092521;28;20036;-68
2022/01/07 05:21:39;;;;;;;4.47;1.80;;;;;;;;;;5092030;28;20425;-76
2022/01/07 05:24:05;;;;;;;4.35;1.80;;;;;;;;;;5095798;28;20052;-67
2022/01/07 05:26:31;;;;;;;4.93;1.70;;;;;;;;;;5104325;28;20012;-64
2022/01/07 05:28:57;;;;;;;5.70;2.15;;;;;;;;;;5096978;28;20027;-76
2022/01/07 05:31:24;;;;;;;4.93;1.95;;;;;;;;;;5091828;28;20026;-64
2022/01/07 05:33:50;;;;;;;4.85;2.03;;;;;;;;;;5091769;28;20111;-63
2022/01/07 05:36:17;;;;;;;4.97;2.05;;;;;;;;;;5090578;28;20020;-63
2022/01/07 05:38:43;;;;;;;5.57;2.28;;;;;;;;;;5091708;28;20031;-64
2022/01/07 05:41:09;;;;;;;5.65;2.50;;;;;;;;;;5091629;28;20016;-66
2022/01/07 05:43:35;;;;;;;5.40;2.00;;;;;;;;;;5091606;28;20099;-65
2022/01/07 05:46:01;;;;;;;5.22;2.17;;;;;;;;;;5077263;28;20082;-63
2022/01/07 05:48:27;;;;;;;5.28;2.00;;;;;;;;;;5071474;28;20044;-72
2022/01/07 05:50:53;;;;;;;4.05;1.98;;;;;;;;;;5071436;28;20039;-76
2022/01/07 05:53:19;;;;;;;7.20;2.20;;;;;;;;;;5070157;28;20032;-66
2022/01/07 05:55:45;;;;;;;4.35;2.00;;;;;;;;;;5069979;28;20472;-80
2022/01/07 05:58:11;;;;;;;4.35;1.65;;;;;;;;;;5071364;28;20032;-82
2022/01/07 06:00:37;;;;;;;5.68;2.05;;;;;;;;;;5071607;28;20052;-82
2022/01/07 06:03:03;;;;;;;5.53;2.17;;;;;;;;;;5071486;28;20035;-82
2022/01/07 06:05:29;;;;;;;4.93;1.92;;;;;;;;;;5071551;28;20055;-77
2022/01/07 06:07:56;;;;;;;6.38;2.00;;;;;;;;;;5071407;28;20025;-66
2022/01/07 06:10:22;;;;;;;5.47;2.08;;;;;;;;;;5071487;28;20024;-69
2022/01/07 06:12:48;;;;;;;6.47;1.83;;;;;;;;;;5071249;28;20020;-62
2022/01/07 06:15:14;;;;;;;6.05;2.20;;;;;;;;;;5071137;28;20028;-68
2022/01/07 06:17:40;;;;;;;4.63;2.08;;;;;;;;;;5087822;28;20377;-82
2022/01/07 06:20:07;;;;;;;5.55;2.00;;;;;;;;;;5090582;28;20034;-64
2022/01/07 06:22:34;;;;;;;6.28;2.22;;;;;;;;;;5090476;28;20021;-77
2022/01/07 06:25:00;;;;;;;4.75;1.92;;;;;;;;;;5091214;28;20024;-66
2022/01/07 06:27:26;;;;;;;5.65;2.00;;;;;;;;;;5091945;28;20024;-78
2022/01/07 06:29:52;;;;;;;5.07;2.30;;;;;;;;;;5091794;28;20103;-68
2022/01/07 06:32:18;;;;;;;5.03;2.40;;;;;;;;;;5091907;28;20094;-85
2022/01/07 06:34:45;;;;;;;4.72;2.00;;;;;;;;;;5074504;28;20059;-67
2022/01/07 06:37:12;;;;;;;6.13;2.15;;;;;;;;;;5069706;28;20020;-66
2022/01/07 06:39:38;;;;;;;6.30;2.40;;;;;;;;;;5070911;28;20028;-67
2022/01/07 06:42:04;;;;;;;5.18;2.20;;;;;;;;;;5071587;28;20044;-71
2022/01/07 06:44:30;;;;;;;4.47;2.30;;;;;;;;;;5072198;28;20021;-77
2022/01/07 06:46:56;;;;;;;6.50;2.22;;;;;;;;;;5071938;28;20373;-78
2022/01/07 06:49:22;;;;;;;6.40;2.10;;;;;;;;;;5071853;28;20028;-80
2022/01/07 06:51:50;;;;;;;4.85;2.03;;;;;;;;;;5071283;28;20027;-78
2022/01/07 06:54:16;;;;;;;4.75;2.13;;;;;;;;;;5071218;28;20035;-84
2022/01/07 06:56:43;;;;;;;4.32;1.95;;;;;;;;;;5071347;28;20381;-68
2022/01/07 06:59:10;;;;;;;6.72;2.38;;;;;;;;;;5071407;28;20052;-79
2022/01/07 07:01:36;;;;;;;4.80;2.13;;;;;;;;;;5073253;28;20019;-77
2022/01/07 07:04:02;;;;;;;5.95;2.78;;;;;;;;;;5073425;28;20036;-72
2022/01/07 07:06:28;;;;;;;7.97;2.90;;;;;;;;;;5074616;28;20027;-73
2022/01/07 07:08:54;;;;;;;5.75;2.30;;;;;;;;;;5074499;28;20032;-76
2022/01/07 07:11:20;;;;;;;6.90;2.20;;;;;;;;;;5074395;28;20104;-81
2022/01/07 07:13:46;;;;;;;6.22;2.53;;;;;;;;;;5073808;28;20043;-85
2022/01/07 07:16:12;;;;;;;5.88;2.38;;;;;;;;;;5074924;28;20078;-87
2022/01/07 07:18:38;;;;;;;10.50;2.70;;;;;;;;;;5075046;28;20115;-80
2022/01/07 07:21:04;;;;;;;5.53;2.33;;;;;;;;;;5073310;28;20016;-78
2022/01/07 07:23:31;;;;;;;7.38;2.40;;;;;;;;;;5074446;28;20052;-68
2022/01/07 07:25:57;;;;;;;7.70;2.53;;;;;;;;;;5072918;28;20504;-75
2022/01/07 07:28:23;;;;;;;6.28;2.47;;;;;;;;;;5073704;28;20013;-68
2022/01/07 07:30:51;;;;;;;7.70;2.50;;;;;;;;;;5082534;28;20162;-79
2022/01/07 07:38:34;;;;;;;5.20;2.58;;;;;;;;;;5094800;28;20031;-80
2022/01/07 07:41:00;;;;;;;6.30;2.60;;;;;;;;;;5094278;28;20028;-66
2022/01/07 07:43:26;;;;;;;6.22;2.53;;;;;;;;;;5094403;28;20094;-71
2022/01/07 07:45:52;;;;;;;5.30;2.50;;;;;;;;;;5094388;28;20024;-80
2022/01/07 07:48:18;;;;;;;7.70;2.63;;;;;;;;;;5094405;28;20153;-79
2022/01/07 07:50:44;;;;;;;7.35;2.42;;;;;;;;;;5094667;28;20024;-85
2022/01/07 07:53:11;;;;;;;6.20;2.50;;;;;;;;;;5094793;28;20103;-81
2022/01/07 07:55:37;;;;;;;7.03;2.65;;;;;;;;;;5094861;28;20476;-68
2022/01/07 07:58:03;;;;;;;6.45;2.20;;;;;;;;;;5099824;28;20031;-70
2022/01/07 08:00:30;;;;;;;6.55;2.33;;;;;;;;;;5106891;28;20028;-70
2022/01/07 08:02:57;;;;;;;7.28;2.47;;;;;;;;;;5098877;28;20507;-74
2022/01/07 08:05:23;;;;;;;18.30;2.97;;;;;;;;;;5093401;28;20590;-81
2022/01/07 08:07:49;;;;;;;5.50;2.20;;;;;;;;;;5079640;28;20020;-76
2022/01/07 08:10:22;;;;;;;4.82;2.05;;;;;;;;;;5076357;28;20025;-68
2022/01/07 08:18:02;;;;;;;6.45;2.50;;;;;;;;;;5093439;28;20081;-76
2022/01/07 08:20:28;;;;;;;6.95;2.60;;;;;;;;;;5093350;28;20028;-80
2022/01/07 08:22:54;;;;;;;5.93;2.85;;;;;;;;;;5091305;28;20024;-74
2022/01/07 08:25:20;;;;;;;5.65;2.40;;;;;;;;;;5093239;28;20056;-73
2022/01/07 08:27:46;;;;;;;6.40;2.45;;;;;;;;;;5093064;28;20579;-67
2022/01/07 08:30:20;;;;;;;7.38;2.60;;;;;;;;;;5093081;28;20062;-63
2022/01/07 08:35:31;;;;;;;10.52;2.60;;;;;;;;;;5092845;28;20060;-72
2022/01/07 08:37:58;;;;;;;9.43;2.85;;;;;;;;;;5093103;28;20028;-79
2022/01/07 08:40:24;;;;;;;7.13;2.78;;;;;;;;;;5092686;28;20058;-72
2022/01/07 08:42:51;;;;;;;5.28;2.10;;;;;;;;;;5092758;28;20460;-75
2022/01/07 08:45:17;;;;;;;8.75;2.72;;;;;;;;;;5091339;28;20074;-75
2022/01/07 08:47:43;;;;;;;7.00;2.33;;;;;;;;;;5092472;28;20027;-78
2022/01/07 08:50:09;;;;;;;8.50;2.90;;;;;;;;;;5092598;28;20024;-72
2022/01/07 08:52:35;;;;;;;7.38;2.30;;;;;;;;;;5090820;28;20431;-79
2022/01/07 08:55:01;;;;;;;8.65;2.53;;;;;;;;;;5089229;28;20120;-83
2022/01/07 08:57:28;;;;;;;55.50;4.32;;;;;;;;;;5072803;28;20021;-80
2022/01/07 08:59:54;;;;;;;20.48;2.97;;;;;;;;;;5072195;28;20032;-92
2022/01/07 09:02:20;;;;;;;13.50;2.63;;;;;;;;;;5085443;28;20030;-86
2022/01/07 09:04:46;;;;;;;12.07;3.80;;;;;;;;;;5091769;28;20027;-79
2022/01/07 09:07:12;;;;;;;9.77;2.97;;;;;;;;;;5072638;28;20503;-77
2022/01/07 09:09:39;;;;;;;12.68;2.92;;;;;;;;;;5072443;28;20374;-62
2022/01/07 09:12:06;;;;;;;22.65;3.42;;;;;;;;;;5076780;28;20474;-89
2022/01/07 09:14:32;;;;;;;15.27;2.80;;;;;;;;;;5092811;28;20481;-77
2022/01/07 09:16:58;;;;;;;7.75;3.15;;;;;;;;;;5092842;28;20027;-82
2022/01/07 09:19:26;;;;;;;8.18;2.80;;;;;;;;;;5092258;28;20393;-89
2022/01/07 09:21:52;;;;;;;12.13;3.67;;;;;;;;;;5090850;28;20117;-81
2022/01/07 09:24:18;;;;;;;9.57;3.05;;;;;;;;;;5092243;28;20052;-74
2022/01/07 09:26:44;;;;;;;12.18;3.05;;;;;;;;;;5088365;28;20032;-78
2022/01/07 09:29:10;;;;;;;7.28;2.55;;;;;;;;;;5092296;28;20023;-66
2022/01/07 09:31:36;;;;;;;10.40;3.33;;;;;;;;;;5091320;28;20065;-69
2022/01/07 09:34:02;;;;;;;7.53;2.67;;;;;;;;;;5090576;28;20522;-69
2022/01/07 09:36:28;;;;;;;13.63;3.13;;;;;;;;;;5091072;28;20027;-77
2022/01/07 09:38:55;;;;;;;12.57;3.20;;;;;;;;;;5089918;28;20179;-84
2022/01/07 09:41:21;;;;;;;5.55;2.40;;;;;;;;;;5092147;28;20016;-68
2022/01/07 09:43:47;;;;;;;8.48;2.88;;;;;;;;;;5092869;28;20020;-68
2022/01/07 09:46:18;;;;;;;6.90;2.55;;;;;;;;;;5090054;28;20031;-78
2022/01/07 09:48:44;;;;;;;9.10;2.70;;;;;;;;;;5092667;28;20024;-63
2022/01/07 09:51:10;;;;;;;8.00;2.50;;;;;;;;;;5092366;28;20024;-70
2022/01/07 09:53:37;;;;;;;11.02;2.92;;;;;;;;;;5092379;28;20029;-77
2022/01/07 09:56:04;;;;;;;12.18;2.50;;;;;;;;;;5088567;28;20073;-62
2022/01/07 09:58:30;;;;;;;11.65;2.85;;;;;;;;;;5089622;28;20023;-81
2022/01/07 10:01:09;;;;;;;18.08;3.38;;;;;;;;;;5091916;28;20034;-67
2022/01/07 10:03:40;;;;;;;8.50;3.58;;;;;;;;;;5092440;28;20027;-63
2022/01/07 10:06:16;;;;;;;5.95;2.60;;;;;;;;;;5091912;28;20023;-69
2022/01/07 10:08:43;;;;;;;6.50;2.95;;;;;;;;;;5090449;28;20103;-75
2022/01/07 10:11:09;;;;;;;19.27;3.08;;;;;;;;;;5090677;28;20031;-62
2022/01/07 10:13:35;;;;;;;9.15;2.90;;;;;;;;;;5089984;28;20039;-77
2022/01/07 10:16:12;;;;;;;6.90;2.58;;;;;;;;;;5091216;28;20103;-62
2022/01/07 10:18:38;;;;;;;6.47;2.70;;;;;;;;;;5089215;28;20038;-68
2022/01/07 10:21:08;;;;;;;7.80;2.45;;;;;;;;;;5090713;28;20040;-62
2022/01/07 10:23:34;;;;;;;8.77;2.90;;;;;;;;;;5091184;28;20066;-64
2022/01/07 10:26:00;;;;;;;5.13;2.30;;;;;;;;;;5091537;28;20053;-67
2022/01/07 10:28:33;;;;;;;8.40;2.92;;;;;;;;;;5091225;28;20413;-69
2022/01/07 10:31:03;;;;;;;7.50;2.90;;;;;;;;;;5091632;28;20117;-68
2022/01/07 10:33:35;;;;;;;7.07;2.45;;;;;;;;;;5098658;28;20020;-75
2022/01/07 10:36:08;;;;;;;11.27;3.47;;;;;;;;;;5105019;28;20112;-69
2022/01/07 10:38:35;;;;;;;15.05;3.25;;;;;;;;;;5093909;28;20008;-62
2022/01/07 10:41:01;;;;;;;9.93;2.60;;;;;;;;;;5087290;28;20042;-64
2022/01/07 10:43:32;;;;;;;11.00;3.05;;;;;;;;;;5082605;28;20032;-62
2022/01/07 10:46:01;;;;;;;10.32;3.33;;;;;;;;;;5083652;28;20027;-67
2022/01/07 10:48:38;;;;;;;9.65;2.83;;;;;;;;;;5093610;28;20012;-70
2022/01/07 10:51:09;;;;;;;8.05;2.67;;;;;;;;;;5093518;28;20020;-65
2022/01/07 10:53:35;;;;;;;10.25;2.45;;;;;;;;;;5093757;28;20079;-62
2022/01/07 10:56:10;;;;;;;7.13;2.50;;;;;;;;;;5093560;28;20027;-63
2022/01/07 10:58:46;;;;;;;7.85;2.38;;;;;;;;;;5093527;28;20044;-66
2022/01/07 11:01:21;;;;;;;12.73;2.50;;;;;;;;;;5086313;28;20050;-68
2022/01/07 11:03:54;;;;;;;14.13;2.22;;;;;;;;;;5091255;28;20042;-73
2022/01/07 11:06:21;;;;;;;11.98;2.67;;;;;;;;;;5093688;28;20028;-69
2022/01/07 11:08:51;;;;;;;6.60;2.38;;;;;;;;;;5093699;28;20035;-76
2022/01/07 11:11:19;;;;;;;7.72;2.38;;;;;;;;;;5093298;28;20027;-65
2022/01/07 11:13:45;;;;;;;11.85;2.13;;;;;;;;;;5093352;28;20025;-66
2022/01/07 11:16:11;;;;;;;8.30;1.90;;;;;;;;;;5093307;28;20027;-64
2022/01/07 11:18:38;;;;;;;6.72;2.53;;;;;;;;;;5078645;28;20481;-65
2022/01/07 11:21:04;;;;;;;5.88;1.90;;;;;;;;;;5087164;28;20046;-72
2022/01/07 11:23:30;;;;;;;5.63;1.83;;;;;;;;;;5087651;28;20044;-74
2022/01/07 11:26:05;;;;;;;5.03;1.85;;;;;;;;;;5092994;28;20028;-74
2022/01/07 11:28:31;;;;;;;5.13;1.83;;;;;;;;;;5090754;28;20035;-81
2022/01/07 11:31:04;;;;;;;7.32;2.03;;;;;;;;;;5092843;28;20114;-63
2022/01/07 11:33:30;;;;;;;;;;;;;;;;;;5093520;28;20040;-79
2022/01/07 11:35:56;;;;;;;3.70;1.70;;;;;;;;;;5083950;28;20252;-77
2022/01/07 11:38:37;;;;;;;5.45;2.10;;;;;;;;;;5092624;28;20028;-78
2022/01/07 11:41:04;;;;;;;3.78;1.70;;;;;;;;;;5092334;28;20052;-78
2022/01/07 11:43:33;;;;;;;5.72;1.90;;;;;;;;;;5092568;28;20023;-77
2022/01/07 11:46:00;;;;;;;5.18;2.00;;;;;;;;;;5091202;28;20027;-76
2022/01/07 11:48:30;;;;;;;5.28;2.17;;;;;;;;;;5091374;28;20461;-81
2022/01/07 11:50:56;;;;;;;3.72;1.60;;;;;;;;;;5089297;28;20031;-78
2022/01/07 11:53:23;;;;;;;4.63;1.85;;;;;;;;;;5091262;28;20124;-65
2022/01/07 11:55:52;;;;;;;5.95;1.95;;;;;;;;;;5090605;28;20496;-63
2022/01/07 11:58:18;;;;;;;6.82;1.92;;;;;;;;;;5091276;28;20364;-73
2022/01/07 12:01:01;;;;;;;5.95;1.67;;;;;;;;;;5092396;28;20027;-62
2022/01/07 12:03:33;;;;;;;3.85;1.60;;;;;;;;;;5078245;28;20024;-63
2022/01/07 12:05:59;;;;;;;4.15;1.90;;;;;;;;;;5091211;28;20020;-78
2022/01/07 12:08:41;;;;;;;5.03;1.80;;;;;;;;;;5091338;28;20473;-69
2022/01/07 12:11:09;;;;;;;5.43;2.42;;;;;;;;;;5091480;28;20070;-75
2022/01/07 12:13:39;;;;;;;5.85;2.35;;;;;;;;;;5092321;28;20062;-71
2022/01/07 12:16:06;;;;;;;5.35;2.17;;;;;;;;;;5082255;28;20025;-77
2022/01/07 12:18:33;;;;;;;4.85;1.92;;;;;;;;;;5086937;28;20032;-78
2022/01/07 12:20:59;;;;;;;4.15;1.58;;;;;;;;;;5090859;28;20028;-79
2022/01/07 12:23:25;;;;;;;5.07;1.88;;;;;;;;;;5092393;28;20059;-75
2022/01/07 12:25:52;;;;;;;4.72;1.92;;;;;;;;;;5083743;28;20024;-69
2022/01/07 12:28:19;;;;;;;4.05;1.80;;;;;;;;;;5072686;28;20020;-80
2022/01/07 12:30:46;;;;;;;4.40;1.80;;;;;;;;;;5072698;28;20069;-79
2022/01/07 12:33:12;;;;;;;4.57;2.03;;;;;;;;;;5072522;28;20089;-75
2022/01/07 12:35:39;;;;;;;7.80;2.05;;;;;;;;;;5088174;28;20157;-78
2022/01/07 12:38:12;;;;;;;8.77;2.40;;;;;;;;;;5089630;28;20016;-77
2022/01/07 12:40:38;;;;;;;5.20;1.77;;;;;;;;;;5092922;28;20111;-74
2022/01/07 12:43:04;;;;;;;6.25;2.03;;;;;;;;;;5098573;28;20013;-75
2022/01/07 12:45:31;;;;;;;7.13;2.72;;;;;;;;;;5091181;28;20028;-76
2022/01/07 12:47:57;;;;;;;8.45;2.30;;;;;;;;;;5089460;28;20012;-72
2022/01/07 12:50:24;;;;;;;8.23;2.60;;;;;;;;;;5093192;28;20468;-64
2022/01/07 12:52:51;;;;;;;8.35;2.42;;;;;;;;;;5090160;28;20025;-62
2022/01/07 12:55:19;;;;;;;6.00;2.30;;;;;;;;;;5092479;28;20027;-64
2022/01/07 12:57:47;;;;;;;35.08;3.17;;;;;;;;;;5092652;28;20020;-64
2022/01/07 13:00:22;;;;;;;9.10;2.45;;;;;;;;;;5092469;28;20217;-63
2022/01/07 13:02:50;;;;;;;9.32;2.75;;;;;;;;;;5093380;28;20027;-65
2022/01/07 13:05:37;;;;;;;5.13;2.13;;;;;;;;;;5093301;28;20048;-66
2022/01/07 13:08:19;;;;;;;7.95;2.60;;;;;;;;;;5092978;28;20023;-63
2022/01/07 13:10:46;;;;;;;11.52;2.58;;;;;;;;;;5098356;28;20028;-62
2022/01/07 13:13:13;;;;;;;10.88;2.67;;;;;;;;;;5091967;28;20495;-79
2022/01/07 13:15:40;;;;;;;10.05;2.63;;;;;;;;;;5089351;28;20032;-82
2022/01/07 13:18:21;;;;;;;6.75;2.05;;;;;;;;;;5088292;28;20513;-72
2022/01/07 13:20:48;;;;;;;11.40;2.40;;;;;;;;;;5086462;28;20031;-81
2022/01/07 13:23:15;;;;;;;5.88;2.05;;;;;;;;;;5091539;28;20109;-78
2022/01/07 13:25:41;;;;;;;6.45;2.17;;;;;;;;;;5090554;28;20089;-72
2022/01/07 13:28:07;;;;;;;7.05;1.98;;;;;;;;;;5091809;28;20028;-78
2022/01/07 13:30:46;;;;;;;7.85;2.67;;;;;;;;;;5091335;28;20028;-63
2022/01/07 13:33:13;;;;;;;7.80;2.60;;;;;;;;;;5075478;28;20020;-81
2022/01/07 13:35:40;;;;;;;7.03;2.42;;;;;;;;;;5089227;28;20036;-62
2022/01/07 13:38:16;;;;;;;9.85;2.58;;;;;;;;;;5089598;28;20060;-65
2022/01/07 13:40:42;;;;;;;4.45;1.95;;;;;;;;;;5091377;28;20032;-73
2022/01/07 13:43:13;;;;;;;6.28;2.00;;;;;;;;;;5089979;28;20028;-69
2022/01/07 13:45:39;;;;;;;8.70;2.00;;;;;;;;;;5086034;28;20020;-64
2022/01/07 13:48:07;;;;;;;6.10;2.13;;;;;;;;;;5090789;28;20031;-73
2022/01/07 13:50:34;;;;;;;5.28;2.08;;;;;;;;;;5091054;28;20048;-76
2022/01/07 13:53:10;;;;;;;6.18;2.30;;;;;;;;;;5091195;28;20024;-71
2022/01/07 13:55:36;;;;;;;7.63;2.42;;;;;;;;;;5089734;28;20031;-68
2022/01/07 13:58:13;;;;;;;6.18;2.40;;;;;;;;;;5089717;28;20020;-83
2022/01/07 14:00:40;;;;;;;4.75;1.98;;;;;;;;;;5089026;28;20024;-72
2022/01/07 14:03:07;;;;;;;5.88;1.92;;;;;;;;;;5087406;28;20330;-76
2022/01/07 14:05:34;;;;;;;5.65;1.90;;;;;;;;;;5091513;28;20473;-82
2022/01/07 14:08:01;;;;;;;5.45;1.80;;;;;;;;;;5089787;28;20086;-69
2022/01/07 14:10:29;;;;;;;6.10;2.30;;;;;;;;;;5088596;28;20109;-77
2022/01/07 14:13:00;;;;;;;6.38;2.08;;;;;;;;;;5094800;28;20019;-78
2022/01/07 14:15:26;;;;;;;7.55;2.28;;;;;;;;;;5094684;28;20043;-74
2022/01/07 14:18:03;;;;;;;5.00;1.95;;;;;;;;;;5094993;28;20099;-71
2022/01/07 14:20:38;;;;;;;5.53;2.28;;;;;;;;;;5090973;28;20035;-64
2022/01/07 14:23:04;;;;;;;6.22;2.17;;;;;;;;;;5090092;28;20064;-69
2022/01/07 14:25:30;;;;;;;5.50;1.95;;;;;;;;;;5092995;28;20050;-81
2022/01/07 14:27:56;;;;;;;7.25;2.33;;;;;;;;;;5091390;28;20101;-72
2022/01/07 14:30:22;;;;;;;6.43;2.50;;;;;;;;;;5092533;28;20031;-79
2022/01/07 14:32:48;;;;;;;4.78;2.00;;;;;;;;;;5093613;28;20023;-78
2022/01/07 14:35:14;;;;;;;9.90;2.20;;;;;;;;;;5090740;28;20067;-66
2022/01/07 14:37:41;;;;;;;4.93;1.70;;;;;;;;;;5092050;28;20072;-66
2022/01/07 14:40:09;;;;;;;6.60;2.42;;;;;;;;;;5091815;28;20459;-65
2022/01/07 14:42:35;;;;;;;7.50;2.80;;;;;;;;;;5093746;28;20012;-75
2022/01/07 14:45:01;;;;;;;7.05;2.22;;;;;;;;;;5092617;28;20085;-66
2022/01/07 14:47:27;;;;;;;5.85;2.10;;;;;;;;;;5091210;28;20097;-64
2022/01/07 14:49:53;;;;;;;7.43;2.63;;;;;;;;;;5093842;28;20055;-63
2022/01/07 14:52:21;;;;;;;4.80;1.73;;;;;;;;;;5090305;28;20032;-76
2022/01/07 14:54:47;;;;;;;7.22;2.45;;;;;;;;;;5091679;28;20047;-73
2022/01/07 14:57:15;;;;;;;6.50;2.03;;;;;;;;;;5092538;28;20117;-84